sensor_id;sensor_type;location;lat;lon;timestamp;temperature;humidity
25949;DHT22;13961;51.178;4.448;2023-06-14T00:00:19;21.20;98.70
25949;DHT22;13961;51.178;4.448;2023-06-14T00:02:45;21.40;98.30
25949;DHT22;13961;51.178;4.448;2023-06-14T00:05:11;21.20;99.20
25949;DHT22;13961;51.178;4.448;2023-06-14T00:07:39;20.90;99.60
25949;DHT22;13961;51.178;4.448;2023-06-14T00:10:09;20.50;99.90
25949;DHT22;13961;51.178;4.448;2023-06-14T00:12:35;20.60;99.90
25949;DHT22;13961;51.178;4.448;2023-06-14T00:15:02;20.60;99.90
25949;DHT22;13961;51.178;4.448;2023-06-14T00:17:28;20.80;99.90
25949;DHT22;13961;51.178;4.448;2023-06-14T00:19:57;20.90;99.90
25949;DHT22;13961;51.178;4.448;2023-06-14T00:22:24;21.00;99.90
25949;DHT22;13961;51.178;4.448;2023-06-14T00:24:54;21.00;99.90
25949;DHT22;13961;51.178;4.448;2023-06-14T00:27:20;20.80;99.90
25949;DHT22;13961;51.178;4.448;2023-06-14T00:29:45;20.70;99.90
25949;DHT22;13961;51.178;4.448;2023-06-14T00:32:11;20.90;99.90
25949;DHT22;13961;51.178;4.448;2023-06-14T00:34:36;20.90;99.90
25949;DHT22;13961;51.178;4.448;2023-06-14T00:37:02;20.90;99.90
25949;DHT22;13961;51.178;4.448;2023-06-14T00:39:28;20.90;99.90
25949;DHT22;13961;51.178;4.448;2023-06-14T00:41:54;20.90;99.90
25949;DHT22;13961;51.178;4.448;2023-06-14T00:44:19;20.80;99.90
25949;DHT22;13961;51.178;4.448;2023-06-14T00:46:45;20.80;99.90
25949;DHT22;13961;51.178;4.448;2023-06-14T00:49:14;20.70;99.90
25949;DHT22;13961;51.178;4.448;2023-06-14T00:51:44;20.70;99.90
25949;DHT22;13961;51.178;4.448;2023-06-14T00:54:11;20.70;99.90
25949;DHT22;13961;51.178;4.448;2023-06-14T00:56:37;20.60;99.90
25949;DHT22;13961;51.178;4.448;2023-06-14T00:59:03;20.50;99.90
25949;DHT22;13961;51.178;4.448;2023-06-14T01:01:32;20.50;99.90
25949;DHT22;13961;51.178;4.448;2023-06-14T01:03:59;20.40;99.90
25949;DHT22;13961;51.178;4.448;2023-06-14T01:12:21;20.30;99.90
25949;DHT22;13961;51.178;4.448;2023-06-14T01:14:51;20.20;99.90
25949;DHT22;13961;51.178;4.448;2023-06-14T01:17:19;20.10;99.90
25949;DHT22;13961;51.178;4.448;2023-06-14T01:19:45;20.00;99.90
25949;DHT22;13961;51.178;4.448;2023-06-14T01:22:11;20.10;99.90
25949;DHT22;13961;51.178;4.448;2023-06-14T01:24:37;19.90;99.90
25949;DHT22;13961;51.178;4.448;2023-06-14T01:27:05;20.00;99.90
25949;DHT22;13961;51.178;4.448;2023-06-14T01:29:33;20.00;99.90
25949;DHT22;13961;51.178;4.448;2023-06-14T01:32:03;20.00;99.90
25949;DHT22;13961;51.178;4.448;2023-06-14T01:34:29;20.00;99.90
25949;DHT22;13961;51.178;4.448;2023-06-14T01:36:55;19.70;99.90
25949;DHT22;13961;51.178;4.448;2023-06-14T01:39:23;19.60;99.90
25949;DHT22;13961;51.178;4.448;2023-06-14T01:41:49;19.70;99.90
25949;DHT22;13961;51.178;4.448;2023-06-14T01:44:17;19.80;99.90
25949;DHT22;13961;51.178;4.448;2023-06-14T01:46:44;19.70;99.90
25949;DHT22;13961;51.178;4.448;2023-06-14T01:49:11;19.60;99.90
25949;DHT22;13961;51.178;4.448;2023-06-14T01:51:37;19.70;99.90
25949;DHT22;13961;51.178;4.448;2023-06-14T01:54:02;19.50;99.90
25949;DHT22;13961;51.178;4.448;2023-06-14T01:56:28;19.70;99.90
25949;DHT22;13961;51.178;4.448;2023-06-14T01:58:54;19.70;99.60
25949;DHT22;13961;51.178;4.448;2023-06-14T02:01:20;19.60;99.80
25949;DHT22;13961;51.178;4.448;2023-06-14T02:03:47;19.70;99.90
25949;DHT22;13961;51.178;4.448;2023-06-14T02:06:13;19.60;99.90
25949;DHT22;13961;51.178;4.448;2023-06-14T02:08:41;19.60;99.70
25949;DHT22;13961;51.178;4.448;2023-06-14T02:11:08;19.40;99.90
25949;DHT22;13961;51.178;4.448;2023-06-14T02:13:33;19.50;99.90
25949;DHT22;13961;51.178;4.448;2023-06-14T02:16:00;19.60;99.30
25949;DHT22;13961;51.178;4.448;2023-06-14T02:18:26;19.40;99.70
25949;DHT22;13961;51.178;4.448;2023-06-14T02:20:52;19.40;99.40
25949;DHT22;13961;51.178;4.448;2023-06-14T02:23:18;19.50;99.60
25949;DHT22;13961;51.178;4.448;2023-06-14T02:25:44;19.50;99.10
25949;DHT22;13961;51.178;4.448;2023-06-14T02:28:11;19.40;99.10
25949;DHT22;13961;51.178;4.448;2023-06-14T02:30:37;19.30;99.50
25949;DHT22;13961;51.178;4.448;2023-06-14T02:33:03;19.30;99.40
25949;DHT22;13961;51.178;4.448;2023-06-14T02:35:30;19.30;99.80
25949;DHT22;13961;51.178;4.448;2023-06-14T02:37:56;19.30;99.40
25949;DHT22;13961;51.178;4.448;2023-06-14T02:40:22;19.10;99.70
25949;DHT22;13961;51.178;4.448;2023-06-14T02:42:48;19.30;99.50
25949;DHT22;13961;51.178;4.448;2023-06-14T02:45:13;19.20;99.40
25949;DHT22;13961;51.178;4.448;2023-06-14T02:47:40;19.30;99.50
25949;DHT22;13961;51.178;4.448;2023-06-14T02:50:06;19.30;99.10
25949;DHT22;13961;51.178;4.448;2023-06-14T02:52:33;19.30;99.20
25949;DHT22;13961;51.178;4.448;2023-06-14T02:54:59;19.30;99.60
25949;DHT22;13961;51.178;4.448;2023-06-14T02:57:25;19.30;99.10
25949;DHT22;13961;51.178;4.448;2023-06-14T02:59:50;19.30;99.10
25949;DHT22;13961;51.178;4.448;2023-06-14T03:02:17;19.30;99.10
25949;DHT22;13961;51.178;4.448;2023-06-14T03:04:43;19.20;98.80
25949;DHT22;13961;51.178;4.448;2023-06-14T03:07:10;19.10;99.30
25949;DHT22;13961;51.178;4.448;2023-06-14T03:09:36;19.10;99.30
25949;DHT22;13961;51.178;4.448;2023-06-14T03:12:05;19.10;99.20
25949;DHT22;13961;51.178;4.448;2023-06-14T03:14:35;19.10;99.00
25949;DHT22;13961;51.178;4.448;2023-06-14T03:17:02;19.00;98.90
25949;DHT22;13961;51.178;4.448;2023-06-14T03:19:27;19.00;99.10
25949;DHT22;13961;51.178;4.448;2023-06-14T03:21:53;19.00;99.20
25949;DHT22;13961;51.178;4.448;2023-06-14T03:24:23;18.90;99.30
25949;DHT22;13961;51.178;4.448;2023-06-14T03:26:49;18.90;99.30
25949;DHT22;13961;51.178;4.448;2023-06-14T03:29:14;18.90;99.20
25949;DHT22;13961;51.178;4.448;2023-06-14T03:31:59;18.90;99.50
25949;DHT22;13961;51.178;4.448;2023-06-14T03:34:25;18.80;99.60
25949;DHT22;13961;51.178;4.448;2023-06-14T03:36:50;18.80;99.40
25949;DHT22;13961;51.178;4.448;2023-06-14T03:39:16;18.80;99.40
25949;DHT22;13961;51.178;4.448;2023-06-14T03:41:42;18.70;99.80
25949;DHT22;13961;51.178;4.448;2023-06-14T03:44:07;18.70;99.90
25949;DHT22;13961;51.178;4.448;2023-06-14T03:46:33;18.70;99.70
25949;DHT22;13961;51.178;4.448;2023-06-14T03:48:58;18.70;99.40
25949;DHT22;13961;51.178;4.448;2023-06-14T03:51:25;18.60;99.60
25949;DHT22;13961;51.178;4.448;2023-06-14T03:53:51;18.70;99.90
25949;DHT22;13961;51.178;4.448;2023-06-14T03:56:17;18.70;99.70
25949;DHT22;13961;51.178;4.448;2023-06-14T03:58:42;18.70;99.80
25949;DHT22;13961;51.178;4.448;2023-06-14T04:01:08;18.60;99.90
25949;DHT22;13961;51.178;4.448;2023-06-14T04:03:34;18.30;99.90
25949;DHT22;13961;51.178;4.448;2023-06-14T04:06:00;18.50;99.90
25949;DHT22;13961;51.178;4.448;2023-06-14T04:08:25;18.30;99.90
25949;DHT22;13961;51.178;4.448;2023-06-14T04:10:51;18.40;99.90
25949;DHT22;13961;51.178;4.448;2023-06-14T04:13:17;18.50;99.90
25949;DHT22;13961;51.178;4.448;2023-06-14T04:15:43;18.50;99.90
25949;DHT22;13961;51.178;4.448;2023-06-14T04:18:12;18.60;99.90
25949;DHT22;13961;51.178;4.448;2023-06-14T04:20:38;18.50;99.90
25949;DHT22;13961;51.178;4.448;2023-06-14T04:23:13;18.50;99.90
25949;DHT22;13961;51.178;4.448;2023-06-14T04:25:38;18.40;99.90
25949;DHT22;13961;51.178;4.448;2023-06-14T04:28:05;18.30;99.90
25949;DHT22;13961;51.178;4.448;2023-06-14T04:30:34;18.20;99.90
25949;DHT22;13961;51.178;4.448;2023-06-14T04:33:00;18.20;99.90
25949;DHT22;13961;51.178;4.448;2023-06-14T04:35:26;18.40;99.90
25949;DHT22;13961;51.178;4.448;2023-06-14T04:37:54;18.50;99.90
25949;DHT22;13961;51.178;4.448;2023-06-14T04:40:20;18.40;99.90
25949;DHT22;13961;51.178;4.448;2023-06-14T04:42:46;18.60;99.90
25949;DHT22;13961;51.178;4.448;2023-06-14T04:45:12;18.70;99.90
25949;DHT22;13961;51.178;4.448;2023-06-14T04:47:38;18.50;99.90
25949;DHT22;13961;51.178;4.448;2023-06-14T04:50:04;18.40;99.90
25949;DHT22;13961;51.178;4.448;2023-06-14T04:52:30;18.30;99.90
25949;DHT22;13961;51.178;4.448;2023-06-14T04:54:57;18.30;99.90
25949;DHT22;13961;51.178;4.448;2023-06-14T04:57:43;18.40;99.90
25949;DHT22;13961;51.178;4.448;2023-06-14T05:00:14;18.60;99.90
25949;DHT22;13961;51.178;4.448;2023-06-14T05:02:40;18.60;99.90
25949;DHT22;13961;51.178;4.448;2023-06-14T05:05:06;18.80;99.90
25949;DHT22;13961;51.178;4.448;2023-06-14T05:07:33;18.90;99.90
25949;DHT22;13961;51.178;4.448;2023-06-14T05:10:01;19.10;99.90
25949;DHT22;13961;51.178;4.448;2023-06-14T05:12:27;19.10;99.90
25949;DHT22;13961;51.178;4.448;2023-06-14T05:14:57;19.20;99.90
25949;DHT22;13961;51.178;4.448;2023-06-14T05:17:24;19.00;99.90
25949;DHT22;13961;51.178;4.448;2023-06-14T05:19:49;19.10;99.90
25949;DHT22;13961;51.178;4.448;2023-06-14T05:22:16;19.20;99.90
25949;DHT22;13961;51.178;4.448;2023-06-14T05:24:41;19.30;99.90
25949;DHT22;13961;51.178;4.448;2023-06-14T05:27:07;19.30;99.90
25949;DHT22;13961;51.178;4.448;2023-06-14T05:29:33;19.30;99.90
25949;DHT22;13961;51.178;4.448;2023-06-14T05:31:59;19.40;99.90
25949;DHT22;13961;51.178;4.448;2023-06-14T05:34:25;19.40;99.90
25949;DHT22;13961;51.178;4.448;2023-06-14T05:36:51;19.40;99.90
25949;DHT22;13961;51.178;4.448;2023-06-14T05:39:16;19.60;99.90
25949;DHT22;13961;51.178;4.448;2023-06-14T05:41:42;19.50;99.90
25949;DHT22;13961;51.178;4.448;2023-06-14T05:44:09;19.70;99.90
25949;DHT22;13961;51.178;4.448;2023-06-14T05:46:34;19.90;99.90
25949;DHT22;13961;51.178;4.448;2023-06-14T05:49:00;19.90;99.90
25949;DHT22;13961;51.178;4.448;2023-06-14T05:51:26;20.00;99.90
25949;DHT22;13961;51.178;4.448;2023-06-14T05:53:52;19.90;99.90
25949;DHT22;13961;51.178;4.448;2023-06-14T05:56:18;19.80;99.90
25949;DHT22;13961;51.178;4.448;2023-06-14T05:58:44;19.80;99.90
25949;DHT22;13961;51.178;4.448;2023-06-14T06:01:10;19.90;99.90
25949;DHT22;13961;51.178;4.448;2023-06-14T06:03:36;20.00;99.90
25949;DHT22;13961;51.178;4.448;2023-06-14T06:06:02;20.20;99.90
25949;DHT22;13961;51.178;4.448;2023-06-14T06:08:28;20.30;99.90
25949;DHT22;13961;51.178;4.448;2023-06-14T06:10:55;20.30;99.90
25949;DHT22;13961;51.178;4.448;2023-06-14T06:13:21;20.40;99.90
25949;DHT22;13961;51.178;4.448;2023-06-14T06:15:47;20.40;99.90
25949;DHT22;13961;51.178;4.448;2023-06-14T06:18:12;20.70;99.90
25949;DHT22;13961;51.178;4.448;2023-06-14T06:20:38;20.80;99.60
25949;DHT22;13961;51.178;4.448;2023-06-14T06:23:06;20.80;99.90
25949;DHT22;13961;51.178;4.448;2023-06-14T06:25:33;21.00;99.50
25949;DHT22;13961;51.178;4.448;2023-06-14T06:27:58;21.10;99.30
25949;DHT22;13961;51.178;4.448;2023-06-14T06:30:25;21.20;99.80
25949;DHT22;13961;51.178;4.448;2023-06-14T06:32:51;21.10;98.90
25949;DHT22;13961;51.178;4.448;2023-06-14T06:35:17;21.50;98.70
25949;DHT22;13961;51.178;4.448;2023-06-14T06:37:43;21.90;98.20
25949;DHT22;13961;51.178;4.448;2023-06-14T06:40:09;23.50;95.70
25949;DHT22;13961;51.178;4.448;2023-06-14T06:42:35;25.60;93.20
25949;DHT22;13961;51.178;4.448;2023-06-14T06:45:02;27.00;91.80
25949;DHT22;13961;51.178;4.448;2023-06-14T06:47:28;28.20;86.20
25949;DHT22;13961;51.178;4.448;2023-06-14T06:49:53;28.00;82.60
25949;DHT22;13961;51.178;4.448;2023-06-14T06:52:19;28.00;83.20
25949;DHT22;13961;51.178;4.448;2023-06-14T06:54:45;28.10;83.30
25949;DHT22;13961;51.178;4.448;2023-06-14T06:57:11;29.70;79.10
25949;DHT22;13961;51.178;4.448;2023-06-14T06:59:37;30.80;77.30
25949;DHT22;13961;51.178;4.448;2023-06-14T07:02:03;30.20;73.00
25949;DHT22;13961;51.178;4.448;2023-06-14T07:04:29;30.40;74.60
25949;DHT22;13961;51.178;4.448;2023-06-14T07:06:55;31.40;71.80
25949;DHT22;13961;51.178;4.448;2023-06-14T07:09:20;32.10;68.80
25949;DHT22;13961;51.178;4.448;2023-06-14T07:11:47;30.40;70.90
25949;DHT22;13961;51.178;4.448;2023-06-14T07:14:13;29.10;73.90
25949;DHT22;13961;51.178;4.448;2023-06-14T07:16:39;29.50;72.60
25949;DHT22;13961;51.178;4.448;2023-06-14T07:19:04;28.50;73.20
25949;DHT22;13961;51.178;4.448;2023-06-14T07:21:30;28.90;74.30
25949;DHT22;13961;51.178;4.448;2023-06-14T07:23:56;29.30;73.30
25949;DHT22;13961;51.178;4.448;2023-06-14T07:26:22;28.30;74.20
25949;DHT22;13961;51.178;4.448;2023-06-14T07:28:48;28.50;74.70
25949;DHT22;13961;51.178;4.448;2023-06-14T07:31:17;28.60;74.70
25949;DHT22;13961;51.178;4.448;2023-06-14T07:33:45;30.70;71.30
25949;DHT22;13961;51.178;4.448;2023-06-14T07:36:10;31.00;70.00
25949;DHT22;13961;51.178;4.448;2023-06-14T07:38:36;30.90;70.00
25949;DHT22;13961;51.178;4.448;2023-06-14T07:41:02;32.20;68.30
25949;DHT22;13961;51.178;4.448;2023-06-14T07:43:28;32.40;68.30
25949;DHT22;13961;51.178;4.448;2023-06-14T07:45:54;31.70;69.10
25949;DHT22;13961;51.178;4.448;2023-06-14T07:48:20;33.70;65.50
25949;DHT22;13961;51.178;4.448;2023-06-14T07:50:46;34.20;62.70
25949;DHT22;13961;51.178;4.448;2023-06-14T07:53:12;34.40;62.00
25949;DHT22;13961;51.178;4.448;2023-06-14T07:55:37;35.00;59.40
25949;DHT22;13961;51.178;4.448;2023-06-14T07:58:08;34.50;59.70
25949;DHT22;13961;51.178;4.448;2023-06-14T08:00:34;33.70;60.80
25949;DHT22;13961;51.178;4.448;2023-06-14T08:03:00;33.30;63.00
25949;DHT22;13961;51.178;4.448;2023-06-14T08:05:26;33.50;63.90
25949;DHT22;13961;51.178;4.448;2023-06-14T08:07:52;33.20;61.70
25949;DHT22;13961;51.178;4.448;2023-06-14T08:10:18;33.30;64.10
25949;DHT22;13961;51.178;4.448;2023-06-14T08:12:44;33.30;61.60
25949;DHT22;13961;51.178;4.448;2023-06-14T08:15:10;33.10;63.70
25949;DHT22;13961;51.178;4.448;2023-06-14T08:17:35;33.00;63.90
25949;DHT22;13961;51.178;4.448;2023-06-14T08:20:02;33.20;62.90
25949;DHT22;13961;51.178;4.448;2023-06-14T08:22:30;32.90;64.00
25949;DHT22;13961;51.178;4.448;2023-06-14T08:24:58;31.00;65.80
25949;DHT22;13961;51.178;4.448;2023-06-14T08:27:24;30.00;66.80
25949;DHT22;13961;51.178;4.448;2023-06-14T08:29:49;29.30;69.50
25949;DHT22;13961;51.178;4.448;2023-06-14T08:32:15;29.50;69.60
25949;DHT22;13961;51.178;4.448;2023-06-14T08:34:41;30.80;67.50
25949;DHT22;13961;51.178;4.448;2023-06-14T08:37:06;32.10;65.40
25949;DHT22;13961;51.178;4.448;2023-06-14T08:39:33;32.30;63.60
25949;DHT22;13961;51.178;4.448;2023-06-14T08:42:01;31.80;65.20
25949;DHT22;13961;51.178;4.448;2023-06-14T08:44:28;30.90;65.50
25949;DHT22;13961;51.178;4.448;2023-06-14T08:46:56;30.30;67.30
25949;DHT22;13961;51.178;4.448;2023-06-14T08:49:23;29.40;67.90
25949;DHT22;13961;51.178;4.448;2023-06-14T08:51:56;31.20;67.60
25949;DHT22;13961;51.178;4.448;2023-06-14T08:54:24;31.30;67.10
25949;DHT22;13961;51.178;4.448;2023-06-14T08:56:53;32.40;64.20
25949;DHT22;13961;51.178;4.448;2023-06-14T08:59:27;31.70;63.20
25949;DHT22;13961;51.178;4.448;2023-06-14T09:01:53;31.00;64.80
25949;DHT22;13961;51.178;4.448;2023-06-14T09:04:23;30.10;66.40
25949;DHT22;13961;51.178;4.448;2023-06-14T09:06:49;31.20;65.20
25949;DHT22;13961;51.178;4.448;2023-06-14T09:09:20;32.70;63.50
25949;DHT22;13961;51.178;4.448;2023-06-14T09:11:46;32.40;61.40
25949;DHT22;13961;51.178;4.448;2023-06-14T09:14:12;32.70;62.20
25949;DHT22;13961;51.178;4.448;2023-06-14T09:16:37;32.00;61.80
25949;DHT22;13961;51.178;4.448;2023-06-14T09:19:03;32.40;62.10
25949;DHT22;13961;51.178;4.448;2023-06-14T09:21:33;32.00;62.80
25949;DHT22;13961;51.178;4.448;2023-06-14T09:23:59;31.20;63.10
25949;DHT22;13961;51.178;4.448;2023-06-14T09:26:25;30.70;64.40
25949;DHT22;13961;51.178;4.448;2023-06-14T09:28:53;30.20;64.20
25949;DHT22;13961;51.178;4.448;2023-06-14T09:31:19;29.50;66.00
25949;DHT22;13961;51.178;4.448;2023-06-14T09:33:46;29.60;67.80
25949;DHT22;13961;51.178;4.448;2023-06-14T09:36:24;30.20;66.90
25949;DHT22;13961;51.178;4.448;2023-06-14T09:38:56;29.20;68.80
25949;DHT22;13961;51.178;4.448;2023-06-14T09:41:38;29.50;68.90
25949;DHT22;13961;51.178;4.448;2023-06-14T09:44:06;29.40;67.00
25949;DHT22;13961;51.178;4.448;2023-06-14T09:46:32;28.60;67.80
25949;DHT22;13961;51.178;4.448;2023-06-14T09:48:58;28.30;67.40
25949;DHT22;13961;51.178;4.448;2023-06-14T09:51:25;28.20;69.70
25949;DHT22;13961;51.178;4.448;2023-06-14T09:53:52;28.00;69.20
25949;DHT22;13961;51.178;4.448;2023-06-14T09:56:28;27.80;70.00
25949;DHT22;13961;51.178;4.448;2023-06-14T09:58:57;27.50;68.30
25949;DHT22;13961;51.178;4.448;2023-06-14T10:01:27;27.10;67.80
25949;DHT22;13961;51.178;4.448;2023-06-14T10:03:55;27.30;68.00
25949;DHT22;13961;51.178;4.448;2023-06-14T10:06:28;27.30;67.40
25949;DHT22;13961;51.178;4.448;2023-06-14T10:08:57;27.20;68.00
25949;DHT22;13961;51.178;4.448;2023-06-14T10:11:26;27.00;65.80
25949;DHT22;13961;51.178;4.448;2023-06-14T10:13:52;27.00;66.50
25949;DHT22;13961;51.178;4.448;2023-06-14T10:16:39;27.20;69.10
25949;DHT22;13961;51.178;4.448;2023-06-14T10:19:19;27.60;66.30
25949;DHT22;13961;51.178;4.448;2023-06-14T10:24:42;28.00;67.10
25949;DHT22;13961;51.178;4.448;2023-06-14T10:27:09;28.20;66.30
25949;DHT22;13961;51.178;4.448;2023-06-14T10:32:18;28.30;65.20
25949;DHT22;13961;51.178;4.448;2023-06-14T10:34:44;28.20;64.90
25949;DHT22;13961;51.178;4.448;2023-06-14T10:37:14;27.70;63.90
25949;DHT22;13961;51.178;4.448;2023-06-14T10:39:43;27.60;64.60
25949;DHT22;13961;51.178;4.448;2023-06-14T10:42:11;27.40;64.20
25949;DHT22;13961;51.178;4.448;2023-06-14T10:44:41;27.60;64.20
25949;DHT22;13961;51.178;4.448;2023-06-14T10:47:50;27.70;64.60
25949;DHT22;13961;51.178;4.448;2023-06-14T10:52:31;27.70;65.50
25949;DHT22;13961;51.178;4.448;2023-06-14T10:55:15;27.60;65.10
25949;DHT22;13961;51.178;4.448;2023-06-14T10:57:56;27.30;65.50
25949;DHT22;13961;51.178;4.448;2023-06-14T11:00:24;27.20;67.00
25949;DHT22;13961;51.178;4.448;2023-06-14T11:05:58;27.50;65.20
25949;DHT22;13961;51.178;4.448;2023-06-14T11:11:07;27.30;62.70
25949;DHT22;13961;51.178;4.448;2023-06-14T11:13:33;27.40;65.20
25949;DHT22;13961;51.178;4.448;2023-06-14T11:16:00;27.80;65.30
25949;DHT22;13961;51.178;4.448;2023-06-14T11:18:25;27.90;64.40
25949;DHT22;13961;51.178;4.448;2023-06-14T11:20:53;28.10;62.90
25949;DHT22;13961;51.178;4.448;2023-06-14T11:23:20;28.30;62.60
25949;DHT22;13961;51.178;4.448;2023-06-14T11:25:53;28.00;63.30
25949;DHT22;13961;51.178;4.448;2023-06-14T11:28:19;28.20;62.90
25949;DHT22;13961;51.178;4.448;2023-06-14T11:31:02;28.00;62.30
25949;DHT22;13961;51.178;4.448;2023-06-14T11:33:28;27.70;63.20
25949;DHT22;13961;51.178;4.448;2023-06-14T11:35:54;28.00;64.40
25949;DHT22;13961;51.178;4.448;2023-06-14T11:38:20;28.00;63.00
25949;DHT22;13961;51.178;4.448;2023-06-14T11:40:45;27.90;63.40
25949;DHT22;13961;51.178;4.448;2023-06-14T11:43:11;27.70;61.60
25949;DHT22;13961;51.178;4.448;2023-06-14T11:45:38;27.50;62.90
25949;DHT22;13961;51.178;4.448;2023-06-14T11:48:05;27.50;64.60
25949;DHT22;13961;51.178;4.448;2023-06-14T11:50:31;27.50;63.50
25949;DHT22;13961;51.178;4.448;2023-06-14T11:52:59;27.20;64.10
25949;DHT22;13961;51.178;4.448;2023-06-14T11:55:32;27.60;67.60
25949;DHT22;13961;51.178;4.448;2023-06-14T11:57:58;27.90;63.20
25949;DHT22;13961;51.178;4.448;2023-06-14T12:00:26;28.20;64.10
25949;DHT22;13961;51.178;4.448;2023-06-14T12:02:54;28.40;61.70
25949;DHT22;13961;51.178;4.448;2023-06-14T12:05:22;28.30;63.70
25949;DHT22;13961;51.178;4.448;2023-06-14T12:07:48;28.00;62.00
25949;DHT22;13961;51.178;4.448;2023-06-14T12:10:14;27.80;63.90
25949;DHT22;13961;51.178;4.448;2023-06-14T12:12:41;28.00;63.20
25949;DHT22;13961;51.178;4.448;2023-06-14T12:15:08;28.00;62.10
25949;DHT22;13961;51.178;4.448;2023-06-14T12:17:36;27.80;61.40
25949;DHT22;13961;51.178;4.448;2023-06-14T12:22:37;27.90;64.40
25949;DHT22;13961;51.178;4.448;2023-06-14T12:25:04;28.00;63.40
25949;DHT22;13961;51.178;4.448;2023-06-14T12:27:31;28.00;62.50
25949;DHT22;13961;51.178;4.448;2023-06-14T12:30:04;28.20;62.70
25949;DHT22;13961;51.178;4.448;2023-06-14T12:32:30;28.30;60.60
25949;DHT22;13961;51.178;4.448;2023-06-14T12:34:56;28.20;61.10
25949;DHT22;13961;51.178;4.448;2023-06-14T12:37:22;28.20;60.40
25949;DHT22;13961;51.178;4.448;2023-06-14T12:39:47;28.40;60.80
25949;DHT22;13961;51.178;4.448;2023-06-14T12:42:13;28.30;60.10
25949;DHT22;13961;51.178;4.448;2023-06-14T12:44:40;28.40;60.60
25949;DHT22;13961;51.178;4.448;2023-06-14T12:47:07;28.50;60.80
25949;DHT22;13961;51.178;4.448;2023-06-14T12:49:33;28.40;58.30
25949;DHT22;13961;51.178;4.448;2023-06-14T12:51:59;28.40;59.40
25949;DHT22;13961;51.178;4.448;2023-06-14T12:54:24;28.40;58.60
25949;DHT22;13961;51.178;4.448;2023-06-14T12:56:53;27.90;59.00
25949;DHT22;13961;51.178;4.448;2023-06-14T12:59:20;28.20;58.60
25949;DHT22;13961;51.178;4.448;2023-06-14T13:01:46;28.40;59.30
25949;DHT22;13961;51.178;4.448;2023-06-14T13:04:15;28.40;58.90
25949;DHT22;13961;51.178;4.448;2023-06-14T13:06:40;28.50;59.00
25949;DHT22;13961;51.178;4.448;2023-06-14T13:09:06;28.50;57.40
25949;DHT22;13961;51.178;4.448;2023-06-14T13:11:33;28.30;57.20
25949;DHT22;13961;51.178;4.448;2023-06-14T13:13:59;28.20;56.40
25949;DHT22;13961;51.178;4.448;2023-06-14T13:16:25;28.50;56.50
25949;DHT22;13961;51.178;4.448;2023-06-14T13:18:50;28.40;56.50
25949;DHT22;13961;51.178;4.448;2023-06-14T13:21:16;28.30;56.80
25949;DHT22;13961;51.178;4.448;2023-06-14T13:23:42;28.50;56.90
25949;DHT22;13961;51.178;4.448;2023-06-14T13:26:07;28.70;55.50
25949;DHT22;13961;51.178;4.448;2023-06-14T13:28:33;28.30;55.70
25949;DHT22;13961;51.178;4.448;2023-06-14T13:31:01;28.40;56.40
25949;DHT22;13961;51.178;4.448;2023-06-14T13:33:27;28.50;56.20
25949;DHT22;13961;51.178;4.448;2023-06-14T13:35:53;28.30;55.70
25949;DHT22;13961;51.178;4.448;2023-06-14T13:38:18;28.10;56.80
25949;DHT22;13961;51.178;4.448;2023-06-14T13:40:44;28.30;57.30
25949;DHT22;13961;51.178;4.448;2023-06-14T13:43:10;28.70;57.40
25949;DHT22;13961;51.178;4.448;2023-06-14T13:45:35;28.50;56.40
25949;DHT22;13961;51.178;4.448;2023-06-14T13:48:01;28.20;56.80
25949;DHT22;13961;51.178;4.448;2023-06-14T13:50:27;28.20;56.40
25949;DHT22;13961;51.178;4.448;2023-06-14T13:52:53;28.50;57.30
25949;DHT22;13961;51.178;4.448;2023-06-14T13:55:18;28.80;56.30
25949;DHT22;13961;51.178;4.448;2023-06-14T13:57:44;28.90;57.70
25949;DHT22;13961;51.178;4.448;2023-06-14T14:00:11;28.60;56.30
25949;DHT22;13961;51.178;4.448;2023-06-14T14:02:37;28.20;57.30
25949;DHT22;13961;51.178;4.448;2023-06-14T14:05:03;28.30;56.50
25949;DHT22;13961;51.178;4.448;2023-06-14T14:07:29;28.20;56.70
25949;DHT22;13961;51.178;4.448;2023-06-14T14:09:55;28.00;56.50
25949;DHT22;13961;51.178;4.448;2023-06-14T14:12:23;28.00;57.40
25949;DHT22;13961;51.178;4.448;2023-06-14T14:14:48;28.40;58.10
25949;DHT22;13961;51.178;4.448;2023-06-14T14:17:14;28.70;57.50
25949;DHT22;13961;51.178;4.448;2023-06-14T14:19:40;28.60;56.40
25949;DHT22;13961;51.178;4.448;2023-06-14T14:22:05;28.90;57.10
25949;DHT22;13961;51.178;4.448;2023-06-14T14:24:31;28.90;57.30
25949;DHT22;13961;51.178;4.448;2023-06-14T14:26:57;28.70;55.80
25949;DHT22;13961;51.178;4.448;2023-06-14T14:29:25;28.50;56.70
25949;DHT22;13961;51.178;4.448;2023-06-14T14:31:54;27.80;56.20
25949;DHT22;13961;51.178;4.448;2023-06-14T14:34:21;27.40;57.80
25949;DHT22;13961;51.178;4.448;2023-06-14T14:36:46;27.80;56.60
25949;DHT22;13961;51.178;4.448;2023-06-14T14:39:13;28.10;56.70
25949;DHT22;13961;51.178;4.448;2023-06-14T14:41:38;28.10;56.40
25949;DHT22;13961;51.178;4.448;2023-06-14T14:44:05;27.90;57.10
25949;DHT22;13961;51.178;4.448;2023-06-14T14:46:31;28.00;56.70
25949;DHT22;13961;51.178;4.448;2023-06-14T14:48:58;28.00;55.90
25949;DHT22;13961;51.178;4.448;2023-06-14T14:51:24;27.90;57.90
25949;DHT22;13961;51.178;4.448;2023-06-14T14:53:50;27.80;56.30
25949;DHT22;13961;51.178;4.448;2023-06-14T14:56:16;27.80;57.20
25949;DHT22;13961;51.178;4.448;2023-06-14T14:58:42;28.00;58.10
25949;DHT22;13961;51.178;4.448;2023-06-14T15:01:09;28.30;56.60
25949;DHT22;13961;51.178;4.448;2023-06-14T15:03:36;28.50;56.50
25949;DHT22;13961;51.178;4.448;2023-06-14T15:06:01;28.40;56.30
25949;DHT22;13961;51.178;4.448;2023-06-14T15:08:27;28.00;56.80
25949;DHT22;13961;51.178;4.448;2023-06-14T15:10:58;28.10;57.00
25949;DHT22;13961;51.178;4.448;2023-06-14T15:13:24;28.10;57.10
25949;DHT22;13961;51.178;4.448;2023-06-14T15:15:49;27.70;57.00
25949;DHT22;13961;51.178;4.448;2023-06-14T15:18:15;27.50;58.00
25949;DHT22;13961;51.178;4.448;2023-06-14T15:20:42;27.90;58.70
25949;DHT22;13961;51.178;4.448;2023-06-14T15:23:08;28.20;58.20
25949;DHT22;13961;51.178;4.448;2023-06-14T15:25:34;28.30;57.30
25949;DHT22;13961;51.178;4.448;2023-06-14T15:28:00;28.30;57.00
25949;DHT22;13961;51.178;4.448;2023-06-14T15:30:26;28.40;56.90
25949;DHT22;13961;51.178;4.448;2023-06-14T15:32:52;28.30;57.20
25949;DHT22;13961;51.178;4.448;2023-06-14T15:35:18;28.20;57.60
25949;DHT22;13961;51.178;4.448;2023-06-14T15:37:47;28.00;58.20
25949;DHT22;13961;51.178;4.448;2023-06-14T15:40:13;28.10;59.10
25949;DHT22;13961;51.178;4.448;2023-06-14T15:42:38;28.40;58.00
25949;DHT22;13961;51.178;4.448;2023-06-14T15:45:05;28.60;57.90
25949;DHT22;13961;51.178;4.448;2023-06-14T15:47:30;28.30;58.10
25949;DHT22;13961;51.178;4.448;2023-06-14T15:49:57;28.40;59.10